Time;durP1;ratioP1;P1;durP2;ratioP2;P2;SDS_P1;SDS_P2;PMS_P1;PMS_P2;Temp;Humidity;BMP_temperature;BMP_pressure;BME280_temperature;BME280_humidity;BME280_pressure;Samples;Min_cycle;Max_cycle;Signal;HPM_P1;HPM_P2
2022/10/21 00:00:16;;;;;;;31.73;17.97;;;;;;;;;;5052239;28;20744;-82
2022/10/21 00:02:44;;;;;;;32.50;17.97;;;;;;;;;;5051662;28;20709;-82
2022/10/21 00:05:11;;;;;;;27.20;17.27;;;;;;;;;;5052096;28;20666;-81
2022/10/21 00:07:39;;;;;;;32.07;17.77;;;;;;;;;;5085373;22;20237;-82
2022/10/21 00:10:07;;;;;;;30.70;16.67;;;;;;;;;;5069096;28;20205;-81
2022/10/21 00:12:34;;;;;;;33.20;17.33;;;;;;;;;;5066965;28;20599;-81
2022/10/21 00:15:02;;;;;;;28.40;18.00;;;;;;;;;;5070269;28;20200;-81
2022/10/21 00:17:29;;;;;;;30.50;16.90;;;;;;;;;;5056470;28;20237;-81
2022/10/21 00:19:56;;;;;;;27.97;17.43;;;;;;;;;;5059590;28;20201;-81
2022/10/21 00:22:23;;;;;;;27.63;17.97;;;;;;;;;;5056553;28;20221;-81
2022/10/21 00:24:51;;;;;;;28.80;17.50;;;;;;;;;;5057810;28;20197;-81
2022/10/21 00:27:18;;;;;;;29.07;17.07;;;;;;;;;;5055801;28;20720;-81
2022/10/21 00:29:46;;;;;;;25.87;16.13;;;;;;;;;;5057134;28;20205;-81
2022/10/21 00:32:13;;;;;;;27.53;16.80;;;;;;;;;;5056777;28;20221;-81
2022/10/21 00:34:42;;;;;;;26.27;15.90;;;;;;;;;;5059245;28;20565;-81
2022/10/21 00:37:09;;;;;;;27.53;16.20;;;;;;;;;;5056205;28;20742;-81
2022/10/21 00:39:36;;;;;;;28.33;16.63;;;;;;;;;;5057803;28;20215;-81
2022/10/21 00:42:05;;;;;;;27.97;16.80;;;;;;;;;;5058352;28;20233;-81
2022/10/21 00:44:32;;;;;;;31.37;17.33;;;;;;;;;;5055901;28;20213;-80
2022/10/21 00:47:02;;;;;;;28.80;18.10;;;;;;;;;;5056925;28;20234;-81
2022/10/21 00:49:32;;;;;;;30.87;18.83;;;;;;;;;;5057735;28;20201;-81
2022/10/21 00:52:00;;;;;;;35.47;19.43;;;;;;;;;;5055227;28;20217;-81
2022/10/21 00:54:29;;;;;;;30.93;18.20;;;;;;;;;;5056752;28;20210;-81
2022/10/21 00:56:57;;;;;;;38.20;19.53;;;;;;;;;;5057622;28;20240;-81
2022/10/21 00:59:28;;;;;;;31.93;18.73;;;;;;;;;;5053625;28;20205;-81
2022/10/21 01:01:55;;;;;;;33.17;18.40;;;;;;;;;;5057948;28;20198;-81
2022/10/21 01:04:23;;;;;;;28.20;17.10;;;;;;;;;;5054473;28;20213;-81
2022/10/21 01:06:50;;;;;;;31.17;16.53;;;;;;;;;;5055629;28;20225;-81
2022/10/21 01:09:18;;;;;;;34.37;17.37;;;;;;;;;;5057305;28;20205;-81
2022/10/21 01:11:46;;;;;;;31.40;16.80;;;;;;;;;;5057712;28;20202;-81
2022/10/21 01:14:22;;;;;;;31.67;16.63;;;;;;;;;;5059635;28;20198;-80
2022/10/21 01:16:54;;;;;;;31.37;16.70;;;;;;;;;;5059642;28;20224;-81
2022/10/21 01:19:36;;;;;;;31.87;17.13;;;;;;;;;;5059865;28;20206;-81
2022/10/21 01:22:08;;;;;;;31.60;16.73;;;;;;;;;;5058611;28;20243;-81
2022/10/21 01:24:59;;;;;;;35.53;16.43;;;;;;;;;;5062784;28;20575;-81
2022/10/21 01:27:42;;;;;;;31.67;15.73;;;;;;;;;;5050583;28;20244;-81
2022/10/21 01:30:14;;;;;;;29.93;16.37;;;;;;;;;;5063064;28;20217;-81
2022/10/21 01:32:51;;;;;;;28.57;16.83;;;;;;;;;;5062025;28;20316;-81
2022/10/21 01:35:21;;;;;;;37.77;17.83;;;;;;;;;;5060636;28;20709;-80
2022/10/21 01:37:51;;;;;;;32.10;16.83;;;;;;;;;;5059787;28;20249;-81
2022/10/21 01:40:20;;;;;;;31.90;17.37;;;;;;;;;;5061779;28;20682;-81
2022/10/21 01:42:51;;;;;;;31.63;17.83;;;;;;;;;;5060501;28;20230;-81
2022/10/21 01:45:20;;;;;;;32.63;17.17;;;;;;;;;;5060869;28;20198;-81
2022/10/21 01:47:51;;;;;;;37.53;18.20;;;;;;;;;;5059484;28;20230;-81
2022/10/21 01:50:19;;;;;;;38.43;17.87;;;;;;;;;;5061302;28;20206;-81
2022/10/21 01:52:48;;;;;;;28.00;17.07;;;;;;;;;;5058378;28;20221;-81
2022/10/21 01:55:18;;;;;;;25.83;15.83;;;;;;;;;;5060930;28;20206;-81
2022/10/21 01:57:48;;;;;;;26.57;15.63;;;;;;;;;;5061955;28;20233;-81
2022/10/21 02:00:15;;;;;;;40.80;17.17;;;;;;;;;;5061077;28;20905;-81
2022/10/21 02:02:44;;;;;;;37.37;16.33;;;;;;;;;;5058998;28;20233;-81
2022/10/21 02:05:16;;;;;;;22.50;15.33;;;;;;;;;;5061330;28;20213;-81
2022/10/21 02:07:43;;;;;;;24.47;13.43;;;;;;;;;;5061710;28;20712;-81
2022/10/21 02:10:11;;;;;;;19.23;11.80;;;;;;;;;;5058959;28;20553;-81
2022/10/21 02:12:39;;;;;;;17.97;11.67;;;;;;;;;;5062576;28;20229;-81
2022/10/21 02:15:08;;;;;;;19.07;12.23;;;;;;;;;;5068528;28;20202;-81
2022/10/21 02:17:37;;;;;;;22.63;12.10;;;;;;;;;;5058698;28;20245;-81
2022/10/21 02:20:05;;;;;;;17.27;9.77;;;;;;;;;;5055620;28;20216;-81
2022/10/21 02:22:34;;;;;;;21.30;11.87;;;;;;;;;;5058266;28;20236;-81
2022/10/21 02:25:03;;;;;;;24.20;13.60;;;;;;;;;;5052446;28;20214;-81
2022/10/21 02:27:31;;;;;;;26.73;14.43;;;;;;;;;;5053253;28;20237;-81
2022/10/21 02:29:58;;;;;;;36.97;16.70;;;;;;;;;;5053621;28;20210;-81
2022/10/21 02:32:30;;;;;;;36.57;16.87;;;;;;;;;;5052905;28;20689;-81
2022/10/21 02:35:03;;;;;;;34.87;18.50;;;;;;;;;;5048205;28;20201;-81
2022/10/21 02:37:33;;;;;;;38.43;20.63;;;;;;;;;;5052422;28;20234;-81
2022/10/21 02:40:04;;;;;;;32.57;18.43;;;;;;;;;;5056733;28;20207;-81
2022/10/21 02:42:33;;;;;;;32.50;18.03;;;;;;;;;;5057425;28;20242;-81
2022/10/21 02:45:00;;;;;;;37.40;18.83;;;;;;;;;;5056446;28;20197;-81
2022/10/21 02:47:28;;;;;;;27.63;16.87;;;;;;;;;;5073016;28;20712;-81
2022/10/21 02:49:55;;;;;;;30.07;16.20;;;;;;;;;;5059712;28;20222;-81
2022/10/21 02:52:22;;;;;;;25.80;13.73;;;;;;;;;;5055340;28;20233;-81
2022/10/21 02:54:49;;;;;;;22.30;13.50;;;;;;;;;;5054723;28;20202;-81
2022/10/21 02:57:17;;;;;;;21.93;11.60;;;;;;;;;;5072776;28;20236;-81
2022/10/21 02:59:44;;;;;;;24.07;12.00;;;;;;;;;;5069836;28;20206;-81
2022/10/21 03:02:11;;;;;;;27.87;12.77;;;;;;;;;;5055831;28;20233;-81
2022/10/21 03:04:38;;;;;;;26.87;13.17;;;;;;;;;;5059864;28;20208;-81
2022/10/21 03:07:05;;;;;;;24.47;11.97;;;;;;;;;;5062761;28;20233;-81
2022/10/21 03:09:32;;;;;;;20.77;12.50;;;;;;;;;;5057374;28;20206;-81
2022/10/21 03:11:59;;;;;;;17.87;10.13;;;;;;;;;;5055636;28;20233;-81
2022/10/21 03:14:28;;;;;;;16.77;10.90;;;;;;;;;;5058501;28;20201;-81
2022/10/21 03:16:55;;;;;;;19.57;12.33;;;;;;;;;;5071545;28;20228;-80
2022/10/21 03:19:22;;;;;;;27.10;13.63;;;;;;;;;;5063391;28;20198;-80
2022/10/21 03:21:49;;;;;;;27.93;14.33;;;;;;;;;;5065290;28;20202;-81
2022/10/21 03:24:16;;;;;;;29.73;15.70;;;;;;;;;;5053979;28;20198;-80
2022/10/21 03:26:43;;;;;;;27.57;15.43;;;;;;;;;;5055381;28;20608;-81
2022/10/21 03:29:11;;;;;;;35.57;16.23;;;;;;;;;;5043366;28;20576;-80
2022/10/21 03:31:39;;;;;;;35.00;16.30;;;;;;;;;;5055404;28;20210;-82
2022/10/21 03:34:06;;;;;;;30.33;16.30;;;;;;;;;;5052740;28;20210;-80
2022/10/21 03:36:33;;;;;;;33.27;16.40;;;;;;;;;;5053165;28;20225;-80
2022/10/21 03:39:00;;;;;;;35.47;17.20;;;;;;;;;;5066906;28;20241;-82
2022/10/21 03:41:27;;;;;;;33.47;16.43;;;;;;;;;;5052585;28;20199;-82
2022/10/21 03:43:55;;;;;;;38.03;16.80;;;;;;;;;;5053860;28;20225;-83
2022/10/21 03:46:22;;;;;;;35.13;16.77;;;;;;;;;;5064720;28;20221;-83
2022/10/21 03:48:50;;;;;;;89.80;46.07;;;;;;;;;;5051736;28;20237;-83
2022/10/21 03:51:17;;;;;;;41.47;20.87;;;;;;;;;;5055695;28;20197;-82
2022/10/21 03:53:44;;;;;;;34.80;20.80;;;;;;;;;;5032059;28;20234;-83
2022/10/21 03:56:11;;;;;;;25.40;15.53;;;;;;;;;;5037062;28;20215;-83
2022/10/21 03:58:38;;;;;;;28.40;14.20;;;;;;;;;;5055668;28;20226;-80
2022/10/21 04:01:06;;;;;;;30.77;15.03;;;;;;;;;;5044456;28;20669;-80
2022/10/21 04:03:33;;;;;;;24.53;13.47;;;;;;;;;;5051396;28;20244;-80
2022/10/21 04:06:01;;;;;;;27.60;13.20;;;;;;;;;;5051851;28;20213;-81
2022/10/21 04:08:28;;;;;;;27.47;13.57;;;;;;;;;;5050405;28;20297;-80
2022/10/21 04:10:57;;;;;;;26.10;12.43;;;;;;;;;;5056110;28;20202;-81
2022/10/21 04:13:24;;;;;;;22.20;12.53;;;;;;;;;;5051542;28;20752;-81
2022/10/21 04:15:51;;;;;;;22.97;12.57;;;;;;;;;;5061953;28;20212;-81
2022/10/21 04:18:18;;;;;;;24.03;11.93;;;;;;;;;;5050311;28;20241;-81
2022/10/21 04:20:45;;;;;;;21.53;11.77;;;;;;;;;;5050538;28;20198;-81
2022/10/21 04:23:14;;;;;;;22.30;12.07;;;;;;;;;;5051427;28;20588;-81
2022/10/21 04:25:44;;;;;;;17.77;10.77;;;;;;;;;;5051152;28;20221;-81
2022/10/21 04:28:11;;;;;;;17.97;10.57;;;;;;;;;;5050686;28;20246;-81
2022/10/21 04:30:38;;;;;;;18.23;11.00;;;;;;;;;;5051774;28;20205;-81
2022/10/21 04:33:05;;;;;;;18.07;10.23;;;;;;;;;;5049230;28;20705;-81
2022/10/21 04:35:32;;;;;;;18.00;10.07;;;;;;;;;;5054288;28;20868;-81
2022/10/21 04:37:59;;;;;;;18.77;12.93;;;;;;;;;;5070963;28;20243;-81
2022/10/21 04:40:28;;;;;;;16.87;10.00;;;;;;;;;;5061632;28;20209;-81
2022/10/21 04:42:55;;;;;;;18.53;10.50;;;;;;;;;;5048933;28;20237;-81
2022/10/21 04:45:22;;;;;;;14.47;10.30;;;;;;;;;;5049747;28;20209;-81
2022/10/21 04:47:49;;;;;;;13.87;10.47;;;;;;;;;;5050997;28;20249;-82
2022/10/21 04:50:16;;;;;;;15.10;10.00;;;;;;;;;;5051573;28;20206;-81
2022/10/21 04:52:43;;;;;;;18.40;10.37;;;;;;;;;;5050568;28;20237;-81
2022/10/21 04:55:10;;;;;;;20.87;10.23;;;;;;;;;;5055391;28;20206;-81
2022/10/21 04:57:40;;;;;;;14.67;9.17;;;;;;;;;;5059956;28;20234;-82
2022/10/21 05:00:07;;;;;;;16.97;10.23;;;;;;;;;;5055330;28;20193;-81
2022/10/21 05:02:34;;;;;;;16.60;10.73;;;;;;;;;;5054249;28;20225;-81
2022/10/21 05:05:01;;;;;;;11.67;8.37;;;;;;;;;;5051871;28;20198;-81
2022/10/21 05:07:28;;;;;;;13.13;8.83;;;;;;;;;;5054327;28;20229;-80
2022/10/21 05:09:55;;;;;;;15.10;9.67;;;;;;;;;;5052599;28;20210;-78
2022/10/21 05:12:22;;;;;;;13.83;10.00;;;;;;;;;;5054212;28;20236;-78
2022/10/21 05:14:51;;;;;;;14.00;9.60;;;;;;;;;;5054540;28;20209;-78
2022/10/21 05:17:18;;;;;;;14.87;9.60;;;;;;;;;;5055830;28;20230;-78
2022/10/21 05:19:45;;;;;;;14.93;9.50;;;;;;;;;;5053860;28;20198;-78
2022/10/21 05:22:12;;;;;;;17.80;9.47;;;;;;;;;;5054332;28;20251;-80
2022/10/21 05:24:39;;;;;;;11.30;9.40;;;;;;;;;;5054786;28;20201;-79
2022/10/21 05:27:06;;;;;;;13.37;9.63;;;;;;;;;;5054471;28;20713;-79
2022/10/21 05:29:33;;;;;;;12.63;9.83;;;;;;;;;;5054522;28;20198;-79
2022/10/21 05:32:02;;;;;;;17.13;10.87;;;;;;;;;;5051319;28;20229;-80
2022/10/21 05:34:29;;;;;;;14.13;9.93;;;;;;;;;;5054790;28;20209;-80
2022/10/21 05:36:56;;;;;;;16.70;10.53;;;;;;;;;;5057751;28;20222;-80
2022/10/21 05:39:23;;;;;;;18.37;9.77;;;;;;;;;;5054219;28;20194;-81
2022/10/21 05:41:50;;;;;;;16.53;10.23;;;;;;;;;;5053183;28;20795;-81
2022/10/21 05:44:17;;;;;;;15.37;10.20;;;;;;;;;;5054321;28;20677;-81
2022/10/21 05:46:44;;;;;;;13.60;10.37;;;;;;;;;;5053908;28;20226;-81
2022/10/21 05:49:13;;;;;;;14.50;9.70;;;;;;;;;;5054289;28;20213;-80
2022/10/21 05:51:40;;;;;;;12.73;10.13;;;;;;;;;;5053751;28;20677;-82
2022/10/21 05:54:07;;;;;;;13.63;9.47;;;;;;;;;;5053694;28;20201;-80
2022/10/21 05:56:34;;;;;;;14.13;9.47;;;;;;;;;;5047369;28;20229;-80
2022/10/21 05:59:01;;;;;;;15.67;9.93;;;;;;;;;;5069603;28;20233;-81
2022/10/21 06:01:28;;;;;;;13.10;10.37;;;;;;;;;;5059093;28;20209;-81
2022/10/21 06:03:55;;;;;;;17.23;9.80;;;;;;;;;;5054069;28;20230;-81
2022/10/21 06:06:24;;;;;;;12.73;9.60;;;;;;;;;;5053975;28;20241;-80
2022/10/21 06:08:51;;;;;;;12.83;10.17;;;;;;;;;;5056262;28;20586;-80
2022/10/21 06:11:19;;;;;;;14.37;10.60;;;;;;;;;;5053505;28;20575;-80
2022/10/21 06:13:46;;;;;;;14.77;10.43;;;;;;;;;;5053212;28;20226;-80
2022/10/21 06:16:14;;;;;;;19.03;10.93;;;;;;;;;;5045208;28;20206;-80
2022/10/21 06:18:42;;;;;;;15.17;10.57;;;;;;;;;;5045233;28;20230;-80
2022/10/21 06:21:09;;;;;;;17.77;10.93;;;;;;;;;;5051834;28;20569;-80
2022/10/21 06:23:38;;;;;;;19.23;10.87;;;;;;;;;;5052931;28;20242;-80
2022/10/21 06:26:06;;;;;;;14.80;10.17;;;;;;;;;;5053682;28;20202;-81
2022/10/21 06:28:34;;;;;;;16.30;11.40;;;;;;;;;;5050859;28;20234;-81
2022/10/21 06:31:01;;;;;;;21.33;11.93;;;;;;;;;;5053699;28;20198;-80
2022/10/21 06:33:29;;;;;;;19.60;11.33;;;;;;;;;;5051406;28;20229;-81
2022/10/21 06:35:56;;;;;;;16.03;11.17;;;;;;;;;;5052863;28;20212;-80
2022/10/21 06:38:24;;;;;;;15.30;10.23;;;;;;;;;;5050366;28;20773;-80
2022/10/21 06:40:53;;;;;;;14.93;11.47;;;;;;;;;;5050084;28;20229;-81
2022/10/21 06:43:20;;;;;;;20.40;11.10;;;;;;;;;;5050657;28;20241;-80
2022/10/21 06:45:47;;;;;;;22.20;12.10;;;;;;;;;;5051078;28;20217;-79
2022/10/21 06:48:14;;;;;;;21.73;11.60;;;;;;;;;;5054866;28;20230;-79
2022/10/21 06:50:42;;;;;;;19.83;10.97;;;;;;;;;;5051540;28;20210;-79
2022/10/21 06:53:09;;;;;;;19.30;11.50;;;;;;;;;;5048273;28;20230;-79
2022/10/21 06:55:36;;;;;;;18.23;12.00;;;;;;;;;;5055458;28;20217;-79
2022/10/21 06:58:04;;;;;;;18.17;12.60;;;;;;;;;;5078103;22;20217;-87
2022/10/21 07:00:31;;;;;;;18.70;12.00;;;;;;;;;;5058649;28;20210;-86
2022/10/21 07:02:58;;;;;;;15.73;11.57;;;;;;;;;;5061123;28;20221;-86
2022/10/21 07:05:26;;;;;;;19.17;12.03;;;;;;;;;;5074406;28;20209;-85
2022/10/21 07:07:54;;;;;;;25.37;13.03;;;;;;;;;;5045284;28;20227;-88
2022/10/21 07:10:21;;;;;;;20.93;12.77;;;;;;;;;;5052587;28;20708;-87
2022/10/21 07:12:48;;;;;;;20.53;13.00;;;;;;;;;;5038694;28;20230;-87
2022/10/21 07:15:17;;;;;;;23.97;12.17;;;;;;;;;;5052970;28;20198;-86
2022/10/21 07:17:45;;;;;;;24.43;14.57;;;;;;;;;;5032704;28;20238;-86
2022/10/21 07:20:12;;;;;;;24.43;15.30;;;;;;;;;;5047236;28;20205;-87
2022/10/21 07:22:40;;;;;;;23.27;14.97;;;;;;;;;;5048605;28;20233;-84
2022/10/21 07:25:08;;;;;;;25.97;15.50;;;;;;;;;;5048360;28;20213;-86
2022/10/21 07:27:35;;;;;;;22.37;16.20;;;;;;;;;;5053199;28;20238;-87
2022/10/21 07:30:02;;;;;;;33.00;20.20;;;;;;;;;;5054460;28;20194;-87
2022/10/21 07:32:30;;;;;;;31.43;19.87;;;;;;;;;;5053521;28;20237;-87
2022/10/21 07:34:58;;;;;;;29.57;17.70;;;;;;;;;;5054171;28;20212;-87
2022/10/21 07:37:25;;;;;;;28.30;19.43;;;;;;;;;;5053641;28;20241;-86
2022/10/21 07:39:53;;;;;;;40.37;21.03;;;;;;;;;;5054042;28;20222;-85
2022/10/21 07:42:20;;;;;;;27.20;17.57;;;;;;;;;;5053762;28;20225;-86
2022/10/21 07:44:51;;;;;;;31.57;18.80;;;;;;;;;;5054206;28;20218;-87
2022/10/21 07:47:37;;;;;;;35.33;18.63;;;;;;;;;;5053380;28;20233;-86
2022/10/21 07:50:04;;;;;;;34.80;19.67;;;;;;;;;;5051211;28;20638;-86
2022/10/21 07:52:31;;;;;;;31.73;19.63;;;;;;;;;;5050156;28;20606;-87
2022/10/21 07:54:58;;;;;;;35.90;19.60;;;;;;;;;;5052902;28;20225;-86
2022/10/21 07:57:25;;;;;;;33.57;19.00;;;;;;;;;;5052817;28;20238;-86
2022/10/21 07:59:52;;;;;;;40.00;18.73;;;;;;;;;;5049074;28;20207;-85
2022/10/21 08:02:19;;;;;;;31.63;18.37;;;;;;;;;;5037237;28;20222;-83
2022/10/21 08:04:48;;;;;;;35.03;18.27;;;;;;;;;;5051446;28;20197;-85
2022/10/21 08:07:15;;;;;;;29.37;18.47;;;;;;;;;;5051311;28;20225;-85
2022/10/21 08:09:48;;;;;;;29.47;18.43;;;;;;;;;;5044196;28;20681;-86
2022/10/21 08:12:15;;;;;;;35.20;18.17;;;;;;;;;;5052790;28;20225;-85
2022/10/21 08:14:42;;;;;;;39.33;19.40;;;;;;;;;;5053304;28;20219;-86
2022/10/21 08:17:09;;;;;;;33.33;18.57;;;;;;;;;;5051550;28;20237;-86
2022/10/21 08:19:38;;;;;;;32.37;17.53;;;;;;;;;;5052269;28;20225;-86
2022/10/21 08:22:06;;;;;;;37.67;17.07;;;;;;;;;;5049085;28;20689;-85
2022/10/21 08:24:34;;;;;;;29.93;17.20;;;;;;;;;;5051253;28;20186;-86
2022/10/21 08:27:01;;;;;;;35.83;17.63;;;;;;;;;;5032694;28;20314;-86
2022/10/21 08:29:35;;;;;;;35.50;18.47;;;;;;;;;;5049287;28;20202;-86
2022/10/21 08:32:02;;;;;;;32.43;18.20;;;;;;;;;;5051477;28;20229;-86
2022/10/21 08:34:37;;;;;;;37.97;18.37;;;;;;;;;;5050959;28;20222;-87
2022/10/21 08:37:15;;;;;;;38.17;18.37;;;;;;;;;;5046294;28;20254;-87
2022/10/21 08:39:42;;;;;;;35.03;19.10;;;;;;;;;;5041968;28;20216;-87
2022/10/21 08:42:12;;;;;;;38.30;18.20;;;;;;;;;;5045581;28;20230;-86
2022/10/21 08:44:42;;;;;;;35.80;19.20;;;;;;;;;;5037010;28;20206;-86
2022/10/21 08:47:21;;;;;;;35.20;17.77;;;;;;;;;;5052147;28;20234;-88
2022/10/21 08:50:02;;;;;;;31.63;16.20;;;;;;;;;;5052860;28;20186;-88
2022/10/21 08:52:38;;;;;;;40.97;17.73;;;;;;;;;;5052545;28;20236;-87
2022/10/21 08:55:07;;;;;;;34.80;17.77;;;;;;;;;;5033990;28;20190;-87
2022/10/21 08:57:35;;;;;;;33.67;17.53;;;;;;;;;;5047842;28;20971;-85
2022/10/21 09:00:11;;;;;;;34.43;17.10;;;;;;;;;;5052477;28;20242;-86
2022/10/21 09:02:54;;;;;;;26.80;13.80;;;;;;;;;;5052164;28;20241;-86
2022/10/21 09:05:32;;;;;;;25.20;13.73;;;;;;;;;;5052477;28;20186;-85
2022/10/21 09:08:06;;;;;;;26.77;13.73;;;;;;;;;;5050039;28;21075;-84
2022/10/21 09:10:47;;;;;;;21.40;11.53;;;;;;;;;;5050065;28;20207;-87
2022/10/21 09:13:25;;;;;;;27.50;13.83;;;;;;;;;;5052454;28;20238;-87
2022/10/21 09:15:55;;;;;;;26.67;14.07;;;;;;;;;;5052920;28;20194;-84
2022/10/21 09:18:29;;;;;;;27.43;13.37;;;;;;;;;;5051599;28;20284;-84
2022/10/21 09:21:00;;;;;;;29.40;14.43;;;;;;;;;;5053495;28;20851;-87
2022/10/21 09:23:57;;;;;;;30.43;13.97;;;;;;;;;;5052801;28;20230;-86
2022/10/21 09:26:33;;;;;;;31.57;16.50;;;;;;;;;;5053465;28;20202;-86
2022/10/21 09:29:25;;;;;;;33.80;17.17;;;;;;;;;;5053138;28;20237;-86
2022/10/21 09:31:53;;;;;;;34.07;18.33;;;;;;;;;;5043211;28;20210;-87
2022/10/21 09:34:23;;;;;;;33.17;19.40;;;;;;;;;;5046929;28;20208;-88
2022/10/21 09:36:51;;;;;;;29.20;15.60;;;;;;;;;;5054109;28;20201;-87
2022/10/21 09:39:22;;;;;;;32.53;18.40;;;;;;;;;;5053671;28;20226;-90
2022/10/21 09:41:53;;;;;;;28.07;12.93;;;;;;;;;;5057625;28;20695;-87
2022/10/21 09:44:22;;;;;;;29.07;14.70;;;;;;;;;;5040679;28;20752;-88
2022/10/21 09:46:50;;;;;;;26.17;13.57;;;;;;;;;;5069517;28;20202;-88
2022/10/21 09:49:21;;;;;;;26.83;15.80;;;;;;;;;;5071510;28;20225;-88
2022/10/21 09:51:49;;;;;;;22.93;13.73;;;;;;;;;;5075132;28;20210;-88
2022/10/21 09:54:18;;;;;;;16.83;9.90;;;;;;;;;;5077213;28;20249;-88
2022/10/21 09:56:49;;;;;;;24.10;13.90;;;;;;;;;;5078187;28;20190;-88
2022/10/21 09:59:24;;;;;;;18.73;10.93;;;;;;;;;;5073417;28;20263;-88
2022/10/21 10:01:52;;;;;;;22.07;12.00;;;;;;;;;;5061811;28;20209;-90
2022/10/21 10:04:30;;;;;;;24.20;15.13;;;;;;;;;;5049617;28;20213;-89
2022/10/21 10:06:57;;;;;;;20.57;10.97;;;;;;;;;;5038280;28;20293;-89
2022/10/21 10:09:29;;;;;;;24.30;13.87;;;;;;;;;;5043204;28;20755;-89
2022/10/21 10:11:57;;;;;;;16.13;9.93;;;;;;;;;;5056885;28;20210;-89
2022/10/21 10:14:33;;;;;;;19.40;9.50;;;;;;;;;;5058462;28;20198;-89
2022/10/21 10:17:15;;;;;;;13.77;9.13;;;;;;;;;;5057171;28;20594;-89
2022/10/21 10:19:42;;;;;;;17.67;8.60;;;;;;;;;;5056519;28;20222;-89
2022/10/21 10:22:12;;;;;;;14.93;8.10;;;;;;;;;;5056501;28;20244;-88
2022/10/21 10:24:40;;;;;;;15.17;8.07;;;;;;;;;;5056251;28;20827;-87
2022/10/21 10:27:08;;;;;;;12.40;7.03;;;;;;;;;;5056568;28;20234;-88
2022/10/21 10:29:36;;;;;;;11.47;6.77;;;;;;;;;;5056291;28;20210;-88
2022/10/21 10:32:03;;;;;;;11.00;7.07;;;;;;;;;;5056252;28;20230;-88
2022/10/21 10:34:34;;;;;;;13.33;6.90;;;;;;;;;;5057017;28;20533;-88
2022/10/21 10:37:03;;;;;;;12.20;7.27;;;;;;;;;;5055313;28;20234;-88
2022/10/21 10:39:55;;;;;;;12.20;6.73;;;;;;;;;;5054166;28;20226;-88
2022/10/21 10:42:31;;;;;;;11.10;6.00;;;;;;;;;;5036027;28;20230;-88
2022/10/21 10:45:08;;;;;;;7.73;4.23;;;;;;;;;;5065454;28;20285;-89
2022/10/21 10:47:49;;;;;;;5.00;4.50;;;;;;;;;;5075612;28;20320;-88
2022/10/21 10:50:31;;;;;;;3.70;3.30;;;;;;;;;;5076630;28;20190;-89
2022/10/21 10:53:20;;;;;;;3.77;2.67;;;;;;;;;;5074448;28;20244;-88
2022/10/21 10:56:01;;;;;;;2.27;2.03;;;;;;;;;;5076215;28;20213;-89
2022/10/21 10:58:31;;;;;;;2.67;2.47;;;;;;;;;;5074643;28;20747;-88
2022/10/21 11:01:00;;;;;;;2.80;2.60;;;;;;;;;;5075875;28;20205;-89
2022/10/21 11:03:32;;;;;;;2.17;1.97;;;;;;;;;;5035195;28;20242;-89
2022/10/21 11:06:06;;;;;;;2.97;2.33;;;;;;;;;;5035382;28;20388;-88
2022/10/21 11:08:36;;;;;;;2.93;2.20;;;;;;;;;;5034583;28;20245;-90
2022/10/21 11:11:05;;;;;;;1.97;1.83;;;;;;;;;;5035180;28;20250;-87
2022/10/21 11:13:34;;;;;;;2.10;2.00;;;;;;;;;;5034471;28;20242;-86
2022/10/21 11:16:10;;;;;;;2.47;2.27;;;;;;;;;;5050497;28;20198;-87
2022/10/21 11:18:41;;;;;;;2.47;2.27;;;;;;;;;;5054175;28;20241;-88
2022/10/21 11:21:16;;;;;;;4.03;2.30;;;;;;;;;;5055518;28;20193;-88
2022/10/21 11:23:50;;;;;;;3.00;2.63;;;;;;;;;;5053988;28;20744;-89
2022/10/21 11:26:22;;;;;;;2.20;2.10;;;;;;;;;;5035069;28;20199;-88
2022/10/21 11:28:53;;;;;;;2.53;2.20;;;;;;;;;;5034362;28;20459;-89
2022/10/21 11:31:23;;;;;;;2.47;2.20;;;;;;;;;;5035182;28;20353;-89
2022/10/21 11:33:56;;;;;;;2.80;2.13;;;;;;;;;;5037894;28;20225;-89
2022/10/21 11:36:27;;;;;;;2.23;2.00;;;;;;;;;;5035065;28;20191;-89
2022/10/21 11:39:18;;;;;;;2.40;1.80;;;;;;;;;;5036730;28;20241;-88
2022/10/21 11:41:47;;;;;;;5.97;1.90;;;;;;;;;;5039474;28;20214;-88
2022/10/21 11:44:16;;;;;;;2.40;2.20;;;;;;;;;;5039174;28;20201;-89
2022/10/21 11:46:49;;;;;;;7.27;3.37;;;;;;;;;;5034816;28;20203;-89
2022/10/21 11:49:24;;;;;;;3.03;2.73;;;;;;;;;;5046185;28;20222;-90
2022/10/21 11:51:56;;;;;;;2.27;2.00;;;;;;;;;;5054524;28;20200;-90
2022/10/21 11:54:41;;;;;;;2.47;2.27;;;;;;;;;;5054506;28;20665;-89
2022/10/21 11:57:10;;;;;;;2.13;1.93;;;;;;;;;;5054244;28;20240;-87
2022/10/21 11:59:44;;;;;;;3.33;2.40;;;;;;;;;;5054575;28;20238;-89
2022/10/21 12:02:15;;;;;;;2.30;2.10;;;;;;;;;;5056892;28;20235;-89
2022/10/21 12:04:48;;;;;;;2.50;2.17;;;;;;;;;;5059265;28;20202;-90
2022/10/21 12:07:24;;;;;;;3.73;1.90;;;;;;;;;;5052273;28;20313;-90
2022/10/21 12:09:54;;;;;;;2.63;2.43;;;;;;;;;;5056566;28;20197;-90
2022/10/21 12:12:23;;;;;;;1.83;1.70;;;;;;;;;;5057029;28;20276;-89
2022/10/21 12:14:53;;;;;;;1.70;1.60;;;;;;;;;;5054969;28;20206;-90
2022/10/21 12:17:22;;;;;;;2.20;2.00;;;;;;;;;;5053935;28;20230;-90
2022/10/21 12:19:54;;;;;;;2.00;1.90;;;;;;;;;;5053819;28;20222;-90
2022/10/21 12:22:32;;;;;;;2.40;2.20;;;;;;;;;;5053424;28;20233;-90
2022/10/21 12:25:05;;;;;;;1.77;1.60;;;;;;;;;;5053688;28;20202;-90
2022/10/21 12:27:34;;;;;;;1.80;1.50;;;;;;;;;;5053338;28;20240;-89
2022/10/21 12:30:05;;;;;;;1.30;1.20;;;;;;;;;;5053864;28;20206;-89
2022/10/21 12:32:38;;;;;;;3.13;1.47;;;;;;;;;;5053222;28;20226;-89
2022/10/21 12:35:06;;;;;;;1.30;1.20;;;;;;;;;;5053572;28;20197;-88
2022/10/21 12:38:04;;;;;;;1.60;1.50;;;;;;;;;;5052875;28;20233;-88
2022/10/21 12:40:36;;;;;;;1.43;1.23;;;;;;;;;;5053509;28;20755;-87
2022/10/21 12:43:04;;;;;;;1.83;1.73;;;;;;;;;;5053430;28;20236;-90
2022/10/21 12:45:33;;;;;;;1.77;1.67;;;;;;;;;;5053652;28;20201;-89
2022/10/21 12:48:00;;;;;;;2.67;2.00;;;;;;;;;;5053285;28;20238;-89
2022/10/21 12:50:30;;;;;;;1.60;1.50;;;;;;;;;;5039539;28;20225;-89
2022/10/21 12:53:05;;;;;;;3.47;1.97;;;;;;;;;;5053928;28;20245;-91
2022/10/21 12:55:38;;;;;;;2.90;2.60;;;;;;;;;;5054381;28;20634;-90
2022/10/21 12:58:06;;;;;;;2.38;1.85;;;;;;;;;;5062640;28;20232;-88
2022/10/21 13:00:50;;;;;;;1.80;1.70;;;;;;;;;;5061364;28;20240;-88
2022/10/21 13:03:20;;;;;;;2.00;1.90;;;;;;;;;;5054600;28;20234;-87
2022/10/21 13:06:03;;;;;;;1.40;1.40;;;;;;;;;;5053116;28;20204;-88
2022/10/21 13:08:38;;;;;;;3.22;2.17;;;;;;;;;;5052423;28;20233;-88
2022/10/21 13:11:21;;;;;;;2.40;2.10;;;;;;;;;;5053324;28;20193;-87
2022/10/21 13:13:49;;;;;;;3.53;2.10;;;;;;;;;;5056344;28;20230;-87
2022/10/21 13:16:30;;;;;;;1.73;1.63;;;;;;;;;;5057195;28;20202;-87
2022/10/21 13:19:01;;;;;;;1.73;1.50;;;;;;;;;;5058436;28;20248;-87
2022/10/21 13:21:36;;;;;;;5.33;1.50;;;;;;;;;;5059355;28;20260;-86
2022/10/21 13:24:14;;;;;;;2.05;1.65;;;;;;;;;;5060391;28;20267;-88
2022/10/21 13:26:42;;;;;;;3.20;1.70;;;;;;;;;;5047647;28;20199;-88
2022/10/21 13:29:31;;;;;;;3.05;1.80;;;;;;;;;;5040406;28;20223;-88
2022/10/21 13:32:12;;;;;;;2.15;1.95;;;;;;;;;;5042832;28;20694;-88
2022/10/21 13:34:41;;;;;;;2.45;1.92;;;;;;;;;;5041848;28;20210;-88
2022/10/21 13:37:14;;;;;;;9.10;2.05;;;;;;;;;;5059791;28;20237;-90
2022/10/21 13:39:43;;;;;;;1.58;1.48;;;;;;;;;;5063942;28;20232;-88
2022/10/21 13:42:12;;;;;;;2.15;1.60;;;;;;;;;;5057939;28;20241;-89
2022/10/21 13:44:40;;;;;;;3.15;1.40;;;;;;;;;;5059764;28;20214;-88
2022/10/21 13:47:27;;;;;;;1.60;1.50;;;;;;;;;;5045110;28;20226;-86
2022/10/21 13:49:56;;;;;;;2.05;1.42;;;;;;;;;;5043647;28;20271;-85
2022/10/21 13:52:28;;;;;;;1.23;1.15;;;;;;;;;;5056079;28;20237;-86
2022/10/21 13:54:59;;;;;;;1.52;1.40;;;;;;;;;;5056388;28;20198;-86
2022/10/21 13:57:28;;;;;;;1.75;1.42;;;;;;;;;;5055166;28;20241;-85
2022/10/21 14:00:03;;;;;;;1.85;1.35;;;;;;;;;;5056207;28;20229;-84
2022/10/21 14:02:30;;;;;;;4.10;1.27;;;;;;;;;;5055818;28;20229;-85
2022/10/21 14:04:57;;;;;;;1.67;1.50;;;;;;;;;;5055718;28;20210;-85
2022/10/21 14:07:24;;;;;;;3.75;1.50;;;;;;;;;;5054645;28;20230;-85
2022/10/21 14:09:55;;;;;;;6.18;1.67;;;;;;;;;;5055825;28;20200;-86
2022/10/21 14:12:24;;;;;;;3.97;1.50;;;;;;;;;;5055551;28;20272;-86
2022/10/21 14:14:51;;;;;;;3.22;1.60;;;;;;;;;;5055537;28;20630;-85
2022/10/21 14:17:20;;;;;;;1.58;1.48;;;;;;;;;;5055111;28;20229;-86
2022/10/21 14:19:49;;;;;;;2.53;2.05;;;;;;;;;;5055402;28;20205;-86
2022/10/21 14:22:18;;;;;;;1.42;1.27;;;;;;;;;;5054615;28;20230;-86
2022/10/21 14:24:46;;;;;;;2.58;1.33;;;;;;;;;;5055417;28;20205;-85
2022/10/21 14:27:16;;;;;;;5.82;1.30;;;;;;;;;;5052965;28;20237;-85
2022/10/21 14:29:43;;;;;;;2.60;1.55;;;;;;;;;;5055294;28;20198;-87
2022/10/21 14:32:13;;;;;;;2.80;1.70;;;;;;;;;;5054871;28;20244;-86
2022/10/21 14:34:57;;;;;;;3.80;1.38;;;;;;;;;;5054746;28;20650;-85
2022/10/21 14:37:24;;;;;;;1.50;1.23;;;;;;;;;;5033593;28;20713;-86
2022/10/21 14:39:52;;;;;;;1.77;1.67;;;;;;;;;;5040370;28;20211;-86
2022/10/21 14:42:21;;;;;;;3.00;1.52;;;;;;;;;;5054706;28;20230;-85